Siemreap, Cambodia

10:40 PM ICT on September 02, 2014 (GMT +0700)
Siem Reap | Change Station
CLOSE
Current Station
Airport
Location: Siemreap,
Elevation: 49 ft
Nearby Weather Stations

Elev 49 ft 13.37 °N, 103.85 °E | Updated 10 minutes ago

Mostly Cloudy
Mostly Cloudy
77 °F
Feels Like 77 °F
N
2
Wind Variable Wind from North

Today
High -- | Low -- °F
--% Chance of Precip.
Yesterday
High -- | Low -- °F
Precip. -- in
5:53 AM 6:15 PM
First Quarter, 52% visible
Pressure 29.80 in
Visibility 5.6 miles
Clouds Scattered Clouds 1500 ft
Mostly Cloudy 4000 ft
Dew Point 73 °F
Humidity 89%
Rainfall 0.00 in
Snow Depth Not available.
UV 0 out of 12
Pollen Not available.
Air Quality Not available.
Flu Activity Not available.
METAR VDSR 021530Z 36002KT 9000 SCT015 BKN040 25/23 Q1009

More Conditions Fewer Conditions

Pressure 29.80 in
Visibility 5.6 miles
Clouds Scattered Clouds 1500 ft
Mostly Cloudy 4000 ft
Dew Point 73 °F
Humidity 89%
Rainfall 0.00 in
Snow Depth Not available.
UV 0 out of 12
Pollen Not available.
Air Quality Not available.
Flu Activity Not available.
METAR VDSR 021530Z 36002KT 9000 SCT015 BKN040 25/23 Q1009

More Conditions Fewer Conditions

10-Day Weather Forecast

Almanac

Astronomy

Sep. 02, 2014 Rise Set
Actual Time 5:53 AM ICT 6:15 PM ICT
Civil Twilight 5:31 AM ICT 6:36 PM ICT
Nautical Twilight 5:06 AM ICT 7:02 PM ICT
Astronomical Twilight 4:41 AM ICT 7:27 PM ICT
Moon 11:59 AM ICT 11:48 PM ICT
Length of Visible Light 13h 05m
Length of Day
12h 22m
Tomorrow will be 0m 43s shorter.
First Quarter, 52% of the Moon is Illuminated
Today
First Quarter
Sep 8
Full
Sep 15
Last Quarter
Sep 24
New
Oct 1
First Quarter

Today's Extremes

Country Highs Country Lows

Community

WunderPhotos

Upload Photos

1,749,705 photos uploaded!

Nearby

Snow Depth

Not available.

Earthquake Activity

City Distance Mag. Time & Date
No recent earthquake activity has been reported nearby.
Minimum magnitude displayed is 2.5.

Coastal Water Temperatures

Place Temperature
No Stations Reporting

Nearby Weather Stations